• Join FlightAware (Why Join?)
  • Login
  • US Flag 
09:57PM EDT


 

Airport Tracker/Info


-or-


 

Live Flight TrackerFlight Track Log ✈ N102VU ✈ 30-Apr-2014 ✈ KTHA - TN35

Flight Track Log - Related Links

Times and Time Zones

All times are in EDT time to prevent confusion due to time zone crossing. See the N102VU flight status page for this flight to view local times or setup timezone preferences in your user account.

Time Position Orientation Groundspeed Altitude Reporting Facility
EDT Latitude Longitude Course Direction KTS MPH feet Rate Location/Type
10:26AM 35.4017 -86.2869 333° Northwest 97 112 2,600  Level Memphis Center
10:27AM 35.4186 -86.3067 317° Northwest 82 94 3,000 180 Climbing Memphis Center
10:28AM 35.4419 -86.3283 323° Northwest 97 112 3,000  Level Memphis Center
10:29AM 35.4658 -86.3533 320° Northwest 107 123 3,000  Level Memphis Center
10:30AM 35.4931 -86.3831 318° Northwest 109 125 3,000  Level Memphis Center
10:31AM 35.5498 -86.3634 333° Northwest  Level FlightAware Approximate
10:31AM 35.5167 -86.4078 320° Northwest 109 125 3,000  Level Memphis Center
10:32AM 35.5414 -86.4328 321° Northwest 110 127 3,000  Level Memphis Center
10:33AM 35.5661 -86.4581 320° Northwest 111 128 3,000  Level Memphis Center
10:34AM 35.5903 -86.4839 319° Northwest 112 129 3,000  Level Memphis Center
10:35AM 35.6153 -86.5094 320° Northwest 113 130 3,000  Level Memphis Center
10:36AM 35.6406 -86.5361 319° Northwest 114 131 3,000  Level Memphis Center
10:37AM 35.6661 -86.5622 320° Northwest 115 132 3,000  Level Memphis Center
10:38AM 35.6964 -86.5928 321° Northwest 115 132 3,000  Level Memphis Center
10:39AM 35.7222 -86.6189 321° Northwest 116 133 3,000  Level Memphis Center
10:40AM 35.7478 -86.6472 318° Northwest 117 135 3,000  Level Memphis Center
10:41AM 35.7744 -86.6733 322° Northwest 118 136 3,000  Level Memphis Center
10:42AM 35.8006 -86.7019 318° Northwest 120 138 3,000  Level Memphis Center
10:44AM 35.8275 -86.7297 320° Northwest 121 139 3,000  Level Memphis Center
10:45AM 35.8536 -86.7581 319° Northwest 122 140 3,000  Level Memphis Center
10:46AM 35.8839 -86.7892 320° Northwest 122 140 3,000  Level Memphis Center
10:47AM 35.9103 -86.8164 320° Northwest 122 140 3,000  Level Memphis Center
10:48AM 35.9358 -86.8428 320° Northwest 122 140 3,000 -120 Level Memphis Center
10:49AM 35.9625 -86.8681 323° Northwest 122 140 2,800 -300 Descending Memphis Center
10:50AM 36.0006 -86.8531 18° North 136 157 2,400 -420 Descending Memphis Center
10:51AM 36.0386 -86.8397 16° North 137 158 2,000 -360 Descending Memphis Center
10:52AM 36.0731 -86.8269 17° North 135 155 1,700 -180 Descending Memphis Center
10:53AM 36.1133 -86.8128 16° North 136 157 1,700  Level Memphis Center